Author Topic: KSEA Holds, Go-Arounds, Delays  (Read 72 times)

Offline Fryy

  • Moderator
  • Hero Member
  • *****
  • Posts: 529
    • CalAggieFlyers
KSEA Holds, Go-Arounds, Delays
« on: February 09, 2019, 02:38:27 AM »
Lots going on right now in Seattle, 0730Z.
Current Metar -  KSEA 090653Z 08009KT 1/2SM R16L/5500VP6000FT -SN FZFG BKN008 OVC010 M02/M03 A2966 RMK AO2 SLP054 P0004 T10171033 $